< < Back
Terminal Aerodrome Forecast


Current Version              Previous Versions:   1  2  3  4  5  6  7  8  9  

Terminal Aerodrome Forecast

605
FTUS44 KMOB 251724
TAFPNS
TAF
KPNS 251724Z 2518/2618 24014G21KT P6SM FEW017 OVC025
     FM252100 21010KT P6SM VCTS SCT030CB OVC050
      TEMPO 2521/2524 2SM TSRA BKN020CB
     FM260100 23005KT P6SM BKN010
     FM261200 25003KT 2SM BR OVC005
     FM261500 27005KT P6SM SCT250=



Latest METAR

611
SAUS70 KWBC 251800 RRO
MTRPNS
METAR KPNS 251753Z 24015KT 10SM BKN019 BKN025 BKN032 29/23 A2980 RMK AO2
SLP092 60000 T02890228 10289 20244 58003


USA.gov is the U.S. government's official web portal to all federal, state and local government web resources and services.